Time;durP1;ratioP1;P1;durP2;ratioP2;P2;SDS_P1;SDS_P2;PMS_P1;PMS_P2;Temp;Humidity;BMP_temperature;BMP_pressure;BME280_temperature;BME280_humidity;BME280_pressure;Samples;Min_cycle;Max_cycle;Signal;HPM_P1;HPM_P2
2022/08/15 00:00:29;;;;;;;7.13;4.68;;;;;;;15.86;100.00;94322.78;5003608;28;20049;-68
2022/08/15 00:02:59;;;;;;;11.23;4.50;;;;;;;15.86;100.00;94325.41;5020388;28;20219;-68
2022/08/15 00:05:37;;;;;;;11.75;5.15;;;;;;;15.84;100.00;94317.00;5018922;28;20080;-68
2022/08/15 00:08:07;;;;;;;7.30;4.90;;;;;;;15.80;100.00;94321.25;5021151;28;20045;-68
2022/08/15 00:11:17;;;;;;;7.80;4.95;;;;;;;15.85;100.00;94334.34;5020836;28;20112;-67
2022/08/15 00:13:51;;;;;;;7.35;5.55;;;;;;;15.73;100.00;94326.00;5003544;28;20318;-68
2022/08/15 00:16:32;;;;;;;7.15;5.13;;;;;;;15.69;100.00;94324.97;5002300;28;20049;-68
2022/08/15 00:19:02;;;;;;;7.93;5.32;;;;;;;15.63;100.00;94332.13;4921940;28;20048;-68
2022/08/15 00:21:31;;;;;;;8.50;5.00;;;;;;;15.59;100.00;94320.59;4926038;28;20051;-68
2022/08/15 00:23:58;;;;;;;8.52;5.63;;;;;;;15.61;100.00;94322.94;4925239;29;20043;-68
2022/08/15 00:26:26;;;;;;;8.52;4.97;;;;;;;15.56;100.00;94309.88;4922410;29;20047;-68
2022/08/15 00:29:13;;;;;;;7.53;4.85;;;;;;;15.60;100.00;94319.53;4936845;28;20056;-67
2022/08/15 00:31:40;;;;;;;7.80;4.85;;;;;;;15.61;100.00;94312.44;4988837;28;20047;-68
2022/08/15 00:34:15;;;;;;;10.15;5.90;;;;;;;15.58;100.00;94318.25;4988500;28;20042;-68
2022/08/15 00:37:03;;;;;;;11.32;5.85;;;;;;;15.59;100.00;94325.06;4986766;28;20042;-68
2022/08/15 00:39:34;;;;;;;8.60;5.55;;;;;;;15.57;100.00;94320.06;5014513;28;20033;-68
2022/08/15 00:42:08;;;;;;;10.43;5.60;;;;;;;15.53;100.00;94313.81;5017941;28;20366;-68
2022/08/15 00:44:46;;;;;;;10.65;5.15;;;;;;;15.49;100.00;94316.19;5024163;28;20037;-67
2022/08/15 00:47:32;;;;;;;7.30;5.00;;;;;;;15.51;100.00;94323.03;4923625;29;20047;-68
2022/08/15 00:50:09;;;;;;;11.27;5.72;;;;;;;15.41;100.00;94306.31;4924278;29;20071;-67
2022/08/15 00:52:56;;;;;;;6.97;4.82;;;;;;;15.43;100.00;94317.31;4924501;29;20043;-69
2022/08/15 00:55:26;;;;;;;7.35;5.95;;;;;;;15.42;100.00;94326.22;5022611;28;20134;-68
2022/08/15 00:57:53;;;;;;;10.10;5.78;;;;;;;15.42;100.00;94320.97;5022465;28;20041;-68
2022/08/15 01:00:37;;;;;;;8.38;5.97;;;;;;;15.43;100.00;94327.81;4995827;28;20037;-68
2022/08/15 01:03:21;;;;;;;10.02;5.57;;;;;;;15.41;100.00;94324.69;4999863;28;20057;-68
2022/08/15 01:05:53;;;;;;;8.73;6.47;;;;;;;15.43;100.00;94319.13;5022074;28;20296;-68
2022/08/15 01:08:23;;;;;;;9.10;6.28;;;;;;;15.40;100.00;94323.09;5023862;28;20041;-68
2022/08/15 01:10:59;;;;;;;13.52;6.30;;;;;;;15.39;100.00;94326.75;5024108;28;20111;-68
2022/08/15 01:13:32;;;;;;;13.93;6.78;;;;;;;15.22;100.00;94294.91;5022824;28;20550;-68
2022/08/15 01:16:21;;;;;;;8.35;6.15;;;;;;;15.43;100.00;94327.81;5003759;28;20545;-68
2022/08/15 01:19:17;;;;;;;10.60;6.40;;;;;;;15.45;100.00;94319.66;5007816;28;20413;-69
2022/08/15 01:22:01;;;;;;;7.85;5.53;;;;;;;15.51;100.00;94328.28;5023061;28;20080;-68
2022/08/15 01:24:52;;;;;;;13.48;5.75;;;;;;;15.40;100.00;94307.34;5000895;28;20065;-69
2022/08/15 01:27:55;;;;;;;9.88;7.30;;;;;;;15.41;100.00;94316.81;5022035;28;20037;-69
2022/08/15 01:30:27;;;;;;;13.02;7.45;;;;;;;15.44;100.00;94318.09;5004852;28;20514;-68
2022/08/15 01:33:14;;;;;;;16.48;7.20;;;;;;;15.31;100.00;94293.25;5017477;28;20046;-69
2022/08/15 01:35:45;;;;;;;13.80;7.78;;;;;;;15.53;100.00;94308.56;5003308;28;20045;-69
2022/08/15 01:38:25;;;;;;;9.80;6.97;;;;;;;15.52;100.00;94320.13;5002907;28;20049;-67
2022/08/15 01:41:13;;;;;;;8.60;6.35;;;;;;;15.47;100.00;94314.94;5021561;28;20076;-68
2022/08/15 01:44:06;;;;;;;15.30;7.55;;;;;;;15.42;100.00;94320.97;4988486;28;20613;-68
2022/08/15 01:46:55;;;;;;;7.68;5.40;;;;;;;15.37;100.00;94318.38;4986996;28;20044;-68
2022/08/15 01:49:32;;;;;;;9.40;5.60;;;;;;;15.30;100.00;94307.41;5004041;28;20045;-69
2022/08/15 01:52:08;;;;;;;10.23;5.47;;;;;;;15.32;100.00;94318.41;4994388;28;20509;-68
2022/08/15 01:54:57;;;;;;;10.23;6.00;;;;;;;15.30;100.00;94312.66;5002816;28;20485;-68
2022/08/15 01:57:33;;;;;;;14.18;5.90;;;;;;;15.35;100.00;94310.00;4989284;28;20053;-68
2022/08/15 02:00:03;;;;;;;11.25;5.85;;;;;;;15.28;100.00;94309.53;5004375;28;20053;-68
2022/08/15 02:02:43;;;;;;;8.18;5.32;;;;;;;15.21;100.00;94298.56;5002459;28;20053;-68
2022/08/15 02:05:14;;;;;;;9.15;5.95;;;;;;;15.32;100.00;94310.53;5004208;28;20050;-68
2022/08/15 02:07:42;;;;;;;7.55;5.47;;;;;;;15.34;100.00;94305.84;5004138;28;20167;-69
2022/08/15 02:10:15;;;;;;;11.45;6.35;;;;;;;15.33;100.00;94300.84;5003660;28;20049;-68
2022/08/15 02:12:49;;;;;;;9.50;6.13;;;;;;;15.34;100.00;94295.34;4988059;28;20140;-68
2022/08/15 02:15:36;;;;;;;9.55;5.90;;;;;;;15.31;100.00;94298.50;5003811;28;20523;-68
2022/08/15 02:18:03;;;;;;;7.90;5.78;;;;;;;15.33;100.00;94304.25;5003994;28;20053;-68
2022/08/15 02:20:31;;;;;;;11.48;6.20;;;;;;;15.21;100.00;94304.59;5004274;28;20061;-68
2022/08/15 02:23:06;;;;;;;8.57;6.38;;;;;;;15.31;100.00;94314.25;5004949;28;20057;-68
2022/08/15 02:25:43;;;;;;;8.57;5.65;;;;;;;15.31;100.00;94314.25;5022547;28;20049;-68
2022/08/15 02:28:10;;;;;;;7.72;5.65;;;;;;;15.22;100.00;94297.50;5017581;28;20593;-68
2022/08/15 02:31:00;;;;;;;13.98;9.23;;;;;;;15.25;100.00;94310.06;5001689;28;20045;-68
2022/08/15 02:33:28;;;;;;;15.48;10.32;;;;;;;15.15;100.00;94299.66;5004314;28;20037;-68
2022/08/15 02:36:02;;;;;;;21.98;12.68;;;;;;;15.20;100.00;94312.75;5002583;28;20045;-68
2022/08/15 02:38:30;;;;;;;27.13;16.67;;;;;;;15.25;100.00;94316.13;5003420;28;20073;-68
2022/08/15 02:41:20;;;;;;;29.83;19.42;;;;;;;15.30;100.00;94320.53;5003081;28;20475;-68
2022/08/15 02:43:50;;;;;;;27.35;19.30;;;;;;;15.34;100.00;94318.94;5003022;28;20041;-68
2022/08/15 02:46:20;;;;;;;30.20;19.35;;;;;;;15.33;100.00;94322.63;5002443;28;20573;-68
2022/08/15 02:49:01;;;;;;;18.27;11.98;;;;;;;15.34;100.00;94324.19;5004034;28;20045;-68
2022/08/15 02:51:36;;;;;;;16.52;11.93;;;;;;;15.20;100.00;94312.75;5020198;28;20132;-69
2022/08/15 02:54:26;;;;;;;15.38;10.30;;;;;;;15.42;100.00;94336.72;5001913;28;20069;-68
2022/08/15 02:57:14;;;;;;;12.30;9.02;;;;;;;15.47;100.00;94338.53;5021602;28;20044;-68
2022/08/15 02:59:43;;;;;;;12.50;8.85;;;;;;;15.44;100.00;94334.59;5003680;28;20049;-68
2022/08/15 03:02:17;;;;;;;13.98;7.53;;;;;;;15.49;100.00;94342.44;5002255;28;20072;-68
2022/08/15 03:05:03;;;;;;;9.85;7.18;;;;;;;15.54;100.00;94343.47;5003518;28;20045;-69
2022/08/15 03:07:35;;;;;;;10.52;5.40;;;;;;;15.53;100.00;94331.41;5003820;28;20056;-69
2022/08/15 03:10:03;;;;;;;7.47;5.93;;;;;;;15.53;100.00;94347.94;5003748;28;20447;-69
2022/08/15 03:12:54;;;;;;;8.27;6.43;;;;;;;15.52;100.00;94340.34;4989476;28;20515;-71
2022/08/15 03:15:52;;;;;;;9.60;5.55;;;;;;;15.52;100.00;94351.63;5002497;28;20140;-72
2022/08/15 03:18:32;;;;;;;16.98;6.95;;;;;;;15.52;100.00;94356.06;5003672;28;20068;-70
2022/08/15 03:21:06;;;;;;;11.73;7.15;;;;;;;15.48;100.00;94351.41;5003280;28;20092;-70
2022/08/15 03:23:36;;;;;;;10.38;7.00;;;;;;;15.45;100.00;94351.94;5003126;28;20123;-70
2022/08/15 03:26:11;;;;;;;14.00;8.57;;;;;;;15.49;100.00;94363.44;5001160;28;20056;-70
2022/08/15 03:29:01;;;;;;;18.58;10.35;;;;;;;15.46;100.00;94363.97;4990731;28;20460;-70
2022/08/15 03:31:37;;;;;;;16.92;10.40;;;;;;;15.48;100.00;94366.34;5002420;28;20037;-71
2022/08/15 03:34:13;;;;;;;18.50;11.73;;;;;;;15.44;100.00;94370.56;5001611;28;20045;-70
2022/08/15 03:36:45;;;;;;;19.67;12.20;;;;;;;15.38;100.00;94372.44;4999361;28;20049;-70
2022/08/15 03:39:21;;;;;;;24.23;12.90;;;;;;;15.41;100.00;94392.09;4995558;28;20056;-70
2022/08/15 03:41:50;;;;;;;26.30;12.35;;;;;;;15.39;100.00;94384.50;4991701;28;20140;-70
2022/08/15 03:44:24;;;;;;;22.38;13.40;;;;;;;15.39;100.00;94389.75;5005363;28;20145;-71
2022/08/15 03:46:58;;;;;;;19.88;12.48;;;;;;;15.43;100.00;94390.78;5007863;28;20243;-70
2022/08/15 03:49:28;;;;;;;22.40;12.60;;;;;;;15.43;100.00;94385.53;4986664;28;20139;-70
2022/08/15 03:52:15;;;;;;;18.77;12.13;;;;;;;15.51;100.00;94396.50;4993141;28;20046;-68
2022/08/15 03:55:04;;;;;;;23.52;12.85;;;;;;;15.52;100.00;94387.56;5020591;28;20523;-69
2022/08/15 03:57:43;;;;;;;14.07;10.10;;;;;;;15.57;100.00;94390.16;4988976;28;20576;-70
2022/08/15 04:00:38;;;;;;;20.95;9.63;;;;;;;15.40;100.00;94364.31;5008011;28;20136;-69
2022/08/15 04:03:11;;;;;;;13.88;8.90;;;;;;;15.60;100.00;94397.50;5030713;28;20108;-70
2022/08/15 04:05:40;;;;;;;11.93;8.80;;;;;;;15.60;100.00;94400.13;4995058;28;20506;-70
2022/08/15 04:08:12;;;;;;;11.85;8.20;;;;;;;15.59;100.00;94395.91;5025084;28;20055;-70
2022/08/15 04:11:05;;;;;;;12.70;8.23;;;;;;;15.60;100.00;94395.66;5010465;28;20051;-70
2022/08/15 04:13:39;;;;;;;12.13;8.38;;;;;;;15.64;100.00;94393.28;5010227;28;20522;-70
2022/08/15 04:16:14;;;;;;;12.63;8.38;;;;;;;15.63;100.00;94394.34;5009521;28;20482;-72
2022/08/15 04:19:02;;;;;;;13.57;9.32;;;;;;;15.50;100.00;94390.47;5010151;28;20443;-70
2022/08/15 04:21:30;;;;;;;20.35;10.48;;;;;;;15.48;100.00;94393.38;5009500;28;20096;-70
2022/08/15 04:23:57;;;;;;;17.55;11.88;;;;;;;15.42;100.00;94389.22;5010386;28;20071;-70
2022/08/15 04:26:24;;;;;;;19.42;11.18;;;;;;;15.47;100.00;94391.81;5006052;28;20461;-70
2022/08/15 04:28:56;;;;;;;16.52;11.20;;;;;;;15.49;100.00;94394.94;5009523;28;20057;-69
2022/08/15 04:31:27;;;;;;;15.27;9.68;;;;;;;15.55;100.00;94397.53;5008924;28;20053;-70
2022/08/15 04:33:59;;;;;;;18.58;9.38;;;;;;;15.49;100.00;94389.69;5008369;28;20168;-68
2022/08/15 04:36:47;;;;;;;17.08;8.90;;;;;;;15.49;100.00;94384.44;5007816;28;20140;-68
2022/08/15 04:39:16;;;;;;;13.25;8.70;;;;;;;15.53;100.00;94383.91;5007357;28;20087;-68
2022/08/15 04:42:01;;;;;;;15.95;9.52;;;;;;;15.59;100.00;94382.81;5009141;28;20048;-68
2022/08/15 04:44:30;;;;;;;14.52;9.73;;;;;;;15.62;100.00;94387.50;5004808;28;20064;-69
2022/08/15 04:46:59;;;;;;;14.20;9.38;;;;;;;15.62;100.00;94382.25;4990371;28;20053;-69
2022/08/15 04:49:27;;;;;;;13.05;8.52;;;;;;;15.60;100.00;94374.66;5025477;28;20042;-69
2022/08/15 04:51:54;;;;;;;15.18;9.80;;;;;;;15.77;100.00;94384.03;5007614;28;20136;-70
2022/08/15 04:54:23;;;;;;;16.10;9.13;;;;;;;15.83;100.00;94377.69;5007152;28;20039;-70
2022/08/15 04:57:15;;;;;;;20.25;8.30;;;;;;;15.97;100.00;94385.69;5007103;28;20428;-70
2022/08/15 04:59:47;;;;;;;13.63;7.55;;;;;;;16.02;100.00;94383.03;5007117;28;20206;-71
2022/08/15 05:03:14;;;;;;;12.05;7.60;;;;;;;16.15;100.00;94390.28;5005859;28;20056;-71
2022/08/15 05:05:48;;;;;;;13.07;7.18;;;;;;;16.25;100.00;94395.44;5008198;28;20038;-72
2022/08/15 05:08:26;;;;;;;13.98;7.82;;;;;;;16.33;100.00;94395.91;5004143;28;20055;-71
2022/08/15 05:11:15;;;;;;;11.60;7.82;;;;;;;16.45;100.00;94398.94;5006189;28;20164;-71
2022/08/15 05:13:45;;;;;;;11.32;7.93;;;;;;;16.29;100.00;94379.91;5005673;28;20144;-70
2022/08/15 05:16:20;;;;;;;12.15;7.60;;;;;;;16.48;100.00;94403.66;4990088;28;20105;-71
2022/08/15 05:19:01;;;;;;;11.13;8.63;;;;;;;16.53;100.00;94395.72;4997910;28;20554;-73
2022/08/15 05:21:32;;;;;;;8.93;6.50;;;;;;;16.49;100.00;94376.28;4988374;28;20055;-70
2022/08/15 05:24:10;;;;;;;17.05;8.05;;;;;;;16.63;100.00;94400.84;4978787;28;20101;-70
2022/08/15 05:26:39;;;;;;;12.43;7.40;;;;;;;16.74;100.00;94392.88;5006621;28;20718;-69
2022/08/15 05:29:25;;;;;;;14.32;7.82;;;;;;;16.84;100.00;94390.16;5001560;28;20045;-70
2022/08/15 05:31:54;;;;;;;14.25;6.32;;;;;;;16.85;100.00;94386.44;4976598;28;20057;-70
2022/08/15 05:34:21;;;;;;;10.05;7.30;;;;;;;17.09;100.00;94396.19;5016753;28;20038;-69
2022/08/15 05:37:04;;;;;;;11.68;6.82;;;;;;;17.16;100.00;94394.78;5002648;28;20045;-70
2022/08/15 05:39:33;;;;;;;9.05;6.40;;;;;;;17.26;100.00;94396.47;5003225;28;20076;-69
2022/08/15 05:42:35;;;;;;;8.35;6.43;;;;;;;17.27;100.00;94399.88;5004193;28;20140;-70
2022/08/15 05:45:36;;;;;;;13.10;7.55;;;;;;;17.29;100.00;94401.19;5004213;28;20589;-70
2022/08/15 05:48:26;;;;;;;14.32;8.45;;;;;;;17.24;100.00;94393.34;5004344;28;20049;-69
2022/08/15 05:51:42;;;;;;;14.00;9.25;;;;;;;17.41;100.00;94399.97;5003922;28;20397;-68
2022/08/15 05:54:46;;;;;;;16.90;8.70;;;;;;;17.51;100.00;94391.94;5004161;28;20396;-68
2022/08/15 05:57:24;;;;;;;15.00;9.48;;;;;;;17.61;100.00;94401.53;5002811;28;20049;-69
2022/08/15 05:59:55;;;;;;;17.27;9.38;;;;;;;17.58;100.00;94400.28;5004493;28;20076;-68
2022/08/15 06:02:31;;;;;;;14.43;9.07;;;;;;;17.63;100.00;94388.88;5007786;28;20491;-74
2022/08/15 06:05:20;;;;;;;13.15;8.93;;;;;;;17.72;100.00;94393.22;5008202;28;20072;-76
2022/08/15 06:08:06;;;;;;;19.88;11.63;;;;;;;17.82;100.00;94392.28;5002630;28;20045;-71
2022/08/15 06:10:58;;;;;;;16.63;11.05;;;;;;;18.06;100.00;94402.75;5003264;28;20443;-72
2022/08/15 06:13:32;;;;;;;13.23;9.88;;;;;;;18.09;100.00;94402.16;5004918;28;20596;-72
2022/08/15 06:16:03;;;;;;;13.48;8.82;;;;;;;18.30;100.00;94407.13;5003496;28;20512;-72
2022/08/15 06:18:52;;;;;;;17.33;10.77;;;;;;;18.61;100.00;94406.56;5004862;28;20886;-73
2022/08/15 06:21:48;;;;;;;18.98;10.88;;;;;;;18.81;100.00;94408.84;4976952;28;20587;-72
2022/08/15 06:24:35;;;;;;;17.73;11.80;;;;;;;18.86;100.00;94411.41;4975903;28;20049;-68
2022/08/15 06:27:33;;;;;;;;;;;;;;;18.99;100.00;94409.06;5001422;28;20045;-70
2022/08/15 06:30:16;;;;;;;25.88;15.35;;;;;;;18.84;100.00;94395.09;4984603;28;19925;-76
2022/08/15 06:33:06;;;;;;;22.88;14.38;;;;;;;18.96;100.00;94413.09;4998533;28;20057;-74
2022/08/15 06:35:50;;;;;;;24.27;15.52;;;;;;;18.86;100.00;94408.75;4999965;28;20601;-73
2022/08/15 06:38:23;;;;;;;28.42;14.07;;;;;;;18.93;100.00;94418.94;4979818;28;20077;-74
2022/08/15 06:41:27;;;;;;;25.75;16.00;;;;;;;19.00;100.00;94415.91;5000900;28;20051;-70
2022/08/15 06:44:06;;;;;;;25.55;15.40;;;;;;;19.03;100.00;94418.75;5001823;28;20056;-70
2022/08/15 06:46:46;;;;;;;28.35;14.98;;;;;;;19.09;100.00;94416.78;5001363;28;20111;-69
2022/08/15 06:49:21;;;;;;;24.13;16.35;;;;;;;19.19;100.00;94413.94;5001608;28;20057;-69
2022/08/15 06:51:51;;;;;;;32.95;18.40;;;;;;;19.31;100.00;94410.03;4986841;28;20056;-70
2022/08/15 06:54:23;;;;;;;23.67;14.85;;;;;;;19.35;100.00;94411.75;5001139;28;20045;-70
2022/08/15 06:57:34;;;;;;;26.00;16.73;;;;;;;19.35;100.00;94403.84;4963955;28;20065;-70
2022/08/15 07:00:16;;;;;;;23.65;14.85;;;;;;;19.51;100.00;94422.78;4968844;28;20238;-70
2022/08/15 07:03:36;;;;;;;26.98;17.38;;;;;;;19.59;100.00;94424.72;4974405;28;20043;-70
2022/08/15 07:06:18;;;;;;;29.85;16.52;;;;;;;19.80;100.00;94424.31;4994615;28;20052;-70
2022/08/15 07:08:55;;;;;;;25.45;15.00;;;;;;;19.86;100.00;94433.66;4967459;28;20488;-70
2022/08/15 07:12:02;;;;;;;26.05;16.38;;;;;;;19.89;100.00;94435.72;4982290;28;20060;-69
2022/08/15 07:15:03;;;;;;;29.88;17.98;;;;;;;20.12;100.00;94425.16;4989907;28;20043;-71
2022/08/15 07:17:39;;;;;;;31.02;18.52;;;;;;;20.05;100.00;94431.66;5004324;28;20067;-71
2022/08/15 07:20:11;;;;;;;31.35;18.45;;;;;;;20.07;100.00;94438.50;5002522;28;20056;-70
2022/08/15 07:22:59;;;;;;;28.98;17.38;;;;;;;20.14;100.00;94428.28;4965243;28;20061;-70
2022/08/15 07:25:33;;;;;;;30.50;18.38;;;;;;;20.37;100.00;94437.78;5004412;28;20099;-69
2022/08/15 07:28:06;;;;;;;29.67;18.92;;;;;;;20.38;100.00;94428.78;5003571;28;20045;-71
2022/08/15 07:31:04;;;;;;;29.42;18.58;;;;;;;20.28;100.00;94431.66;4998998;28;20046;-71
2022/08/15 07:33:37;;;;;;;24.10;17.02;;;;;;;20.00;100.00;94439.69;4959792;28;20049;-69
2022/08/15 07:36:24;;;;;;;31.00;18.48;;;;;;;20.07;100.00;94438.50;4989106;28;20053;-69
2022/08/15 07:39:37;;;;;;;29.58;17.23;;;;;;;20.04;100.00;94419.53;4985957;28;20109;-70
2022/08/15 07:42:18;;;;;;;32.28;19.17;;;;;;;20.36;100.00;94441.50;5003211;28;21144;-72
2022/08/15 07:45:37;;;;;;;31.13;20.27;;;;;;;20.56;100.00;94434.94;4980081;28;20429;-66
2022/08/15 07:48:29;;;;;;;30.80;18.48;;;;;;;20.45;100.00;94444.19;5002866;28;20045;-67
2022/08/15 07:51:22;;;;;;;28.75;18.40;;;;;;;20.66;100.00;94439.22;4987006;28;20462;-67
2022/08/15 07:54:19;;;;;;;29.83;18.52;;;;;;;21.00;100.00;94451.03;5000885;28;20104;-68
2022/08/15 07:57:06;;;;;;;26.00;16.90;;;;;;;20.99;100.00;94447.63;5004180;28;20469;-68
2022/08/15 07:59:37;;;;;;;31.73;20.10;;;;;;;21.21;100.00;94438.00;5001594;28;20682;-67
2022/08/15 08:02:34;;;;;;;26.00;17.38;;;;;;;21.45;100.00;94442.94;5000252;28;20160;-67
2022/08/15 08:05:08;;;;;;;25.42;17.80;;;;;;;21.39;99.95;94438.81;4998537;28;20493;-67
2022/08/15 08:07:43;;;;;;;26.90;17.85;;;;;;;21.37;100.00;94441.81;5000321;28;20080;-68
2022/08/15 08:10:46;;;;;;;24.17;15.18;;;;;;;21.47;100.00;94446.06;4998033;28;20045;-68
2022/08/15 08:14:08;;;;;;;32.33;19.38;;;;;;;21.51;99.72;94433.75;4998982;28;20042;-68
2022/08/15 08:17:24;;;;;;;28.60;19.20;;;;;;;21.52;100.00;94448.56;4923921;28;20065;-68
2022/08/15 08:20:22;;;;;;;28.48;19.27;;;;;;;21.50;100.00;94450.75;4998203;28;20041;-68
2022/08/15 08:23:02;;;;;;;30.83;19.05;;;;;;;21.49;100.00;94443.88;4985582;28;20529;-68
2022/08/15 08:25:54;;;;;;;28.52;19.05;;;;;;;21.52;100.00;94442.50;4976516;28;20043;-68
2022/08/15 08:28:52;;;;;;;27.40;16.55;;;;;;;21.84;99.42;94443.94;4999349;28;20041;-69
2022/08/15 08:31:26;;;;;;;25.50;17.67;;;;;;;21.96;97.80;94452.03;5003023;28;20052;-68
2022/08/15 08:34:18;;;;;;;26.75;18.75;;;;;;;21.85;100.00;94440.16;5020390;28;20494;-69
2022/08/15 08:37:11;;;;;;;28.67;19.40;;;;;;;21.72;98.78;94441.09;5020382;28;20572;-68
2022/08/15 08:39:42;;;;;;;26.58;18.33;;;;;;;21.83;100.00;94452.97;5013407;28;20066;-68
2022/08/15 08:42:26;;;;;;;27.38;19.17;;;;;;;22.04;97.67;94457.63;5019799;28;20049;-68
2022/08/15 08:45:04;;;;;;;28.85;18.70;;;;;;;22.08;97.71;94453.28;5023798;28;20041;-68
2022/08/15 08:47:51;;;;;;;27.90;18.63;;;;;;;22.45;97.66;94435.16;5024583;28;20412;-69
2022/08/15 08:50:38;;;;;;;23.60;18.10;;;;;;;22.34;96.86;94447.97;5023506;28;20049;-69
2022/08/15 08:53:28;;;;;;;24.02;18.00;;;;;;;22.31;98.71;94445.97;5023921;28;20400;-68
2022/08/15 08:56:14;;;;;;;26.90;18.30;;;;;;;22.70;96.32;94452.88;5005898;28;20030;-68
2022/08/15 08:59:22;;;;;;;26.70;18.40;;;;;;;22.79;95.94;94438.81;5024289;28;20049;-68
2022/08/15 09:02:17;;;;;;;23.63;17.50;;;;;;;22.96;93.90;94438.75;5023992;28;20053;-68
2022/08/15 09:05:09;;;;;;;29.38;16.50;;;;;;;22.98;92.62;94431.25;5021921;28;20044;-68
2022/08/15 09:07:45;;;;;;;27.23;14.82;;;;;;;22.82;93.51;94416.97;5021425;28;20443;-68
2022/08/15 09:10:23;;;;;;;26.27;17.30;;;;;;;23.22;93.24;94437.91;5021802;28;20078;-68
2022/08/15 09:15:48;;;;;;;28.23;18.73;;;;;;;23.44;92.32;94427.00;4990110;28;20041;-68
2022/08/15 09:18:27;;;;;;;29.60;18.70;;;;;;;23.67;92.97;94426.69;5004569;28;20593;-70
2022/08/15 09:20:56;;;;;;;25.67;16.75;;;;;;;24.00;87.72;94437.41;5022149;28;20428;-69
2022/08/15 09:23:27;;;;;;;20.88;14.73;;;;;;;24.05;82.74;94433.78;5004980;28;20056;-70
2022/08/15 09:26:18;;;;;;;23.02;14.98;;;;;;;24.21;78.66;94426.75;5023083;28;20037;-69
2022/08/15 09:29:01;;;;;;;20.55;15.30;;;;;;;24.31;80.22;94416.78;5022792;28;20596;-69
2022/08/15 09:31:54;;;;;;;23.10;16.50;;;;;;;24.65;79.56;94420.22;5023789;28;20053;-71
2022/08/15 09:34:44;;;;;;;25.33;17.35;;;;;;;24.56;78.29;94437.09;5023135;28;20380;-70
2022/08/15 09:37:17;;;;;;;27.88;16.17;;;;;;;24.47;78.35;94431.06;5024618;28;20902;-71
2022/08/15 09:40:19;;;;;;;24.65;15.98;;;;;;;24.67;77.31;94426.00;5022957;28;20473;-71
2022/08/15 09:43:18;;;;;;;23.77;15.00;;;;;;;24.70;77.00;94425.34;4957519;28;20591;-70
2022/08/15 09:46:25;;;;;;;23.35;16.73;;;;;;;24.52;76.75;94433.47;5002222;28;20046;-70
2022/08/15 09:49:32;;;;;;;15.90;10.93;;;;;;;24.48;73.89;94419.28;5011807;28;20170;-70
2022/08/15 09:52:12;;;;;;;19.02;13.73;;;;;;;24.48;74.31;94427.28;5012728;28;20140;-71
2022/08/15 09:55:22;;;;;;;18.30;12.50;;;;;;;24.75;73.26;94422.47;5022549;28;20029;-70
2022/08/15 09:57:52;;;;;;;19.92;13.73;;;;;;;25.04;72.00;94418.06;5022323;28;20054;-69
2022/08/15 10:00:36;;;;;;;24.17;14.70;;;;;;;25.35;70.94;94431.66;5022676;28;20049;-70
2022/08/15 10:03:45;;;;;;;17.17;13.68;;;;;;;25.63;71.36;94422.94;5017329;28;20101;-70
2022/08/15 10:06:23;;;;;;;15.50;12.18;;;;;;;25.65;68.27;94420.72;4998281;28;20099;-70
2022/08/15 10:09:17;;;;;;;14.48;10.25;;;;;;;25.38;66.12;94420.31;5006096;28;20044;-70
2022/08/15 10:12:07;;;;;;;14.00;11.30;;;;;;;25.81;67.49;94428.78;5003920;28;20045;-69
2022/08/15 10:14:52;;;;;;;17.83;12.32;;;;;;;25.75;66.31;94427.47;4923073;29;20044;-70
2022/08/15 10:17:33;;;;;;;16.45;12.95;;;;;;;25.82;66.05;94425.03;4994373;28;20151;-68
2022/08/15 10:20:15;;;;;;;16.65;13.52;;;;;;;26.08;66.14;94423.84;4976653;28;20565;-68
2022/08/15 10:22:59;;;;;;;22.13;13.90;;;;;;;26.02;66.00;94422.53;4932874;28;20047;-68
2022/08/15 10:25:36;;;;;;;18.98;13.30;;;;;;;26.03;65.41;94424.84;4935461;28;20059;-68
2022/08/15 10:28:11;;;;;;;20.38;12.13;;;;;;;26.05;67.49;94421.84;4922532;28;20047;-68
2022/08/15 10:31:00;;;;;;;18.20;13.25;;;;;;;26.33;63.59;94421.84;4953958;28;20048;-66
2022/08/15 10:33:30;;;;;;;20.60;12.52;;;;;;;26.47;63.70;94427.56;4989391;28;20893;-67
2022/08/15 10:36:14;;;;;;;17.85;12.27;;;;;;;26.75;63.94;94410.72;4992657;28;20046;-66
2022/08/15 10:39:28;;;;;;;16.17;12.35;;;;;;;26.86;62.18;94405.66;4979595;28;20050;-67
2022/08/15 10:42:28;;;;;;;15.45;12.32;;;;;;;26.67;62.80;94403.69;5017905;28;20034;-66
2022/08/15 10:45:41;;;;;;;15.30;12.57;;;;;;;26.49;62.85;94409.31;4921910;28;20525;-68
2022/08/15 10:48:37;;;;;;;17.20;11.50;;;;;;;26.72;61.36;94394.63;5011391;28;20735;-69
2022/08/15 10:51:25;;;;;;;14.90;11.20;;;;;;;26.86;61.44;94395.75;4998348;28;20078;-69
2022/08/15 10:54:11;;;;;;;12.85;10.57;;;;;;;26.89;62.71;94400.41;5019708;28;20413;-68
2022/08/15 10:56:44;;;;;;;11.63;9.93;;;;;;;26.80;62.79;94391.78;5000332;28;20042;-67
2022/08/15 10:59:43;;;;;;;16.13;11.77;;;;;;;27.24;62.24;94383.66;5006497;28;20542;-68
2022/08/15 11:02:23;;;;;;;13.15;9.80;;;;;;;27.69;57.57;94389.59;5025827;28;20522;-69
2022/08/15 11:05:12;;;;;;;12.32;10.02;;;;;;;27.80;56.54;94387.13;5025767;28;20641;-69
2022/08/15 11:07:51;;;;;;;14.00;9.32;;;;;;;27.86;54.98;94391.09;5028477;28;20426;-69
2022/08/15 11:10:32;;;;;;;10.13;8.65;;;;;;;27.87;54.63;94397.97;5029718;28;20053;-68
2022/08/15 11:13:14;;;;;;;12.95;10.05;;;;;;;27.56;54.39;94378.25;5026765;28;20057;-69
2022/08/15 11:15:58;;;;;;;14.27;10.57;;;;;;;27.56;55.06;94391.63;5027022;28;20050;-69
2022/08/15 11:18:52;;;;;;;10.65;8.65;;;;;;;27.91;49.92;94393.53;5018164;28;20098;-69
2022/08/15 11:21:45;;;;;;;18.02;8.75;;;;;;;28.15;50.42;94387.09;5021224;28;20052;-68
2022/08/15 11:24:39;;;;;;;11.90;9.30;;;;;;;28.23;49.08;94371.94;5020277;28;20378;-69
2022/08/15 11:27:21;;;;;;;11.35;8.57;;;;;;;28.52;48.88;94380.47;5029245;28;20426;-69
2022/08/15 11:29:53;;;;;;;11.98;9.20;;;;;;;28.86;48.07;94367.28;5023593;28;20106;-69
2022/08/15 11:32:29;;;;;;;10.55;9.10;;;;;;;28.87;48.84;94371.53;5024844;28;20046;-69
2022/08/15 11:34:57;;;;;;;11.40;8.50;;;;;;;29.05;47.40;94367.19;5031703;28;20056;-68
2022/08/15 11:37:37;;;;;;;10.30;8.38;;;;;;;29.21;46.54;94369.75;5029128;28;20037;-69
2022/08/15 11:40:17;;;;;;;11.57;8.98;;;;;;;29.15;46.23;94368.50;5028384;28;20041;-69
2022/08/15 11:42:46;;;;;;;11.18;6.93;;;;;;;28.71;45.50;94379.69;5025756;28;20137;-70
2022/08/15 11:45:33;;;;;;;13.13;8.73;;;;;;;29.03;46.55;94377.50;5026064;28;20453;-69
2022/08/15 11:48:25;;;;;;;12.05;8.80;;;;;;;29.44;44.74;94383.13;4993241;28;20273;-69
2022/08/15 11:51:08;;;;;;;11.07;8.90;;;;;;;29.51;45.22;94366.31;4950733;28;20040;-70
2022/08/15 11:53:44;;;;;;;11.38;9.20;;;;;;;29.50;45.64;94378.97;4951497;28;20047;-67
2022/08/15 11:56:22;;;;;;;10.93;8.95;;;;;;;29.35;46.62;94369.16;4942164;28;20130;-72
2022/08/15 11:59:22;;;;;;;10.70;8.48;;;;;;;29.48;44.62;94364.38;4971706;28;20060;-72
2022/08/15 12:02:27;;;;;;;9.93;8.05;;;;;;;29.38;45.62;94368.47;4950075;28;20475;-72
2022/08/15 12:05:15;;;;;;;10.40;8.38;;;;;;;29.85;45.80;94348.38;4964760;28;20042;-72
2022/08/15 12:08:04;;;;;;;9.25;7.47;;;;;;;30.24;42.74;94368.75;5025142;28;20037;-72
2022/08/15 12:11:01;;;;;;;9.68;8.55;;;;;;;30.17;43.71;94364.06;5012881;28;20570;-72
2022/08/15 12:13:34;;;;;;;12.43;9.27;;;;;;;30.48;42.37;94367.47;5028613;28;20118;-71
2022/08/15 12:16:02;;;;;;;9.82;7.88;;;;;;;30.60;42.31;94359.16;5030192;28;20038;-71
2022/08/15 12:18:49;;;;;;;14.93;8.10;;;;;;;30.37;42.04;94371.97;5031713;28;20096;-71
2022/08/15 12:21:22;;;;;;;9.80;8.52;;;;;;;30.62;41.97;94372.97;5031389;28;20042;-70
2022/08/15 12:23:59;;;;;;;11.07;8.20;;;;;;;29.62;43.21;94366.47;5028100;28;20071;-70
2022/08/15 12:26:30;;;;;;;9.50;8.32;;;;;;;30.06;43.30;94357.81;5025977;28;20033;-70
2022/08/15 12:29:15;;;;;;;9.63;8.25;;;;;;;29.53;44.22;94359.47;5005964;28;20057;-73